createdAt,value
2018-04-06T00:01:32.925Z,94511.50
2018-04-06T00:04:00.593Z,94518.20
2018-04-06T00:06:28.176Z,94511.37
2018-04-06T00:08:55.832Z,94521.17
2018-04-06T00:11:23.451Z,94526.89
2018-04-06T00:13:51.098Z,94518.76
2018-04-06T00:16:18.785Z,94513.91
2018-04-06T00:18:46.358Z,94520.94
2018-04-06T00:21:14.008Z,94526.46
2018-04-06T00:23:41.620Z,94527.73
2018-04-06T00:26:09.295Z,94522.42
2018-04-06T00:28:36.871Z,94522.09
2018-04-06T00:31:04.560Z,94526.18
2018-04-06T00:33:32.138Z,94526.95
2018-04-06T00:35:59.759Z,94533.86
2018-04-06T00:38:27.415Z,94533.32
2018-04-06T00:40:55.010Z,94535.09
2018-04-06T00:43:22.683Z,94530.13
2018-04-06T00:45:50.362Z,94548.64
2018-04-06T00:48:18.047Z,94541.55
2018-04-06T00:50:45.668Z,94528.61
2018-04-06T00:53:25.126Z,94538.52
2018-04-06T00:55:52.760Z,94538.52
2018-04-06T00:58:20.360Z,94538.34
2018-04-06T01:00:48.004Z,94530.63
2018-04-06T01:03:15.588Z,94530.25
2018-04-06T01:05:43.336Z,94544.01
2018-04-06T01:08:10.912Z,94536.28
2018-04-06T01:10:38.539Z,94533.35
2018-04-06T01:13:06.221Z,94541.91
2018-04-06T01:15:33.845Z,94544.56
2018-04-06T01:18:01.528Z,94540.42
2018-04-06T01:20:29.230Z,94542.59
2018-04-06T01:22:56.831Z,94547.68
2018-04-06T01:25:24.508Z,94544.60
2018-04-06T01:27:52.158Z,94555.38
2018-04-06T01:30:19.727Z,94548.73
2018-04-06T01:32:47.313Z,94546.59
2018-04-06T01:35:14.937Z,94546.76
2018-04-06T01:37:42.514Z,94533.78
2018-04-06T01:40:10.169Z,94546.56
2018-04-06T01:42:37.865Z,94549.48
2018-04-06T01:45:05.464Z,94539.72
2018-04-06T01:47:33.058Z,94539.52
2018-04-06T01:50:00.718Z,94550.42
2018-04-06T01:52:28.431Z,94550.77
2018-04-06T01:54:56.036Z,94547.27
2018-04-06T01:57:23.680Z,94549.01
2018-04-06T01:59:51.275Z,94557.16
2018-04-06T02:02:19.017Z,94555.69
2018-04-06T02:04:46.622Z,94556.84
2018-04-06T02:07:14.284Z,94552.59
2018-04-06T02:09:41.920Z,94554.94
2018-04-06T02:12:09.521Z,94552.42
2018-04-06T02:14:37.192Z,94552.09
2018-04-06T02:17:04.806Z,94552.91
2018-04-06T02:19:32.500Z,94568.22
2018-04-06T02:22:00.112Z,94565.95
2018-04-06T02:24:27.816Z,94580.78
2018-04-06T02:26:55.374Z,94567.45
2018-04-06T02:29:23.090Z,94568.08
2018-04-06T02:31:50.710Z,94573.38
2018-04-06T02:34:18.355Z,94575.03
2018-04-06T02:36:45.949Z,94573.02
2018-04-06T02:39:13.598Z,94572.38
2018-04-06T02:41:41.258Z,94577.39
2018-04-06T02:44:08.918Z,94574.50
2018-04-06T02:46:36.514Z,94573.93
2018-04-06T02:49:04.147Z,94570.04
2018-04-06T02:51:31.811Z,94579.56
2018-04-06T02:53:59.423Z,94577.66
2018-04-06T02:56:27.128Z,94571.23
2018-04-06T02:58:55.000Z,94576.89
2018-04-06T03:01:22.636Z,94575.58
2018-04-06T03:03:50.244Z,94577.84
2018-04-06T03:06:17.897Z,94576.34
2018-04-06T03:08:45.485Z,94575.22
2018-04-06T03:11:13.071Z,94582.48
2018-04-06T03:13:40.769Z,94586.19
2018-04-06T03:16:08.401Z,94592.97
2018-04-06T03:18:35.984Z,94597.37
2018-04-06T03:21:03.615Z,94592.41
2018-04-06T03:23:31.239Z,94604.48
2018-04-06T03:25:58.870Z,94601.73
2018-04-06T03:28:26.512Z,94599.97
2018-04-06T03:30:54.106Z,94595.41
2018-04-06T03:33:21.760Z,94591.77
2018-04-06T03:35:49.436Z,94597.72
2018-04-06T03:38:17.078Z,94594.07
2018-04-06T03:40:44.686Z,94598.16
2018-04-06T03:43:12.324Z,94596.83
2018-04-06T03:45:39.952Z,94594.48
2018-04-06T03:48:07.580Z,94600.34
2018-04-06T03:50:35.192Z,94598.08
2018-04-06T03:53:02.819Z,94613.21
2018-04-06T03:55:30.473Z,94605.95
2018-04-06T03:57:58.081Z,94608.07
2018-04-06T04:00:25.785Z,94614.35
2018-04-06T04:02:53.454Z,94612.78
2018-04-06T04:05:21.058Z,94606.53
2018-04-06T04:07:48.666Z,94614.03
2018-04-06T04:10:16.365Z,94611.38
2018-04-06T04:12:43.953Z,94603.28
2018-04-06T04:15:11.648Z,94615.55
2018-04-06T04:17:39.305Z,94612.03
2018-04-06T04:20:06.961Z,94610.05
2018-04-06T04:22:34.598Z,94607.03
2018-04-06T04:25:02.386Z,94620.06
2018-04-06T04:27:30.028Z,94611.55
2018-04-06T04:29:57.705Z,94622.50
2018-04-06T04:32:25.326Z,94615.68
2018-04-06T04:34:52.984Z,94626.92
2018-04-06T04:37:20.605Z,94624.09
2018-04-06T04:39:48.266Z,94632.48
2018-04-06T04:42:15.864Z,94633.02
2018-04-06T04:44:43.512Z,94632.44
2018-04-06T04:47:11.150Z,94638.98
2018-04-06T04:49:38.779Z,94640.15
2018-04-06T04:52:06.460Z,94643.31
2018-04-06T04:54:34.101Z,94645.53
2018-04-06T04:57:01.772Z,94651.73
2018-04-06T04:59:29.427Z,94655.83
2018-04-06T05:01:57.102Z,94661.10
2018-04-06T05:04:24.951Z,94658.45
2018-04-06T05:06:52.557Z,94666.55
2018-04-06T05:09:20.228Z,94661.62
2018-04-06T05:11:47.846Z,94663.83
2018-04-06T05:14:15.536Z,94664.02
2018-04-06T05:16:43.198Z,94669.35
2018-04-06T05:19:10.828Z,94667.08
2018-04-06T05:21:38.493Z,94661.30
2018-04-06T05:24:06.150Z,94666.98
2018-04-06T05:26:33.742Z,94667.64
2018-04-06T05:29:01.401Z,94666.75
2018-04-06T05:31:29.153Z,94670.37
2018-04-06T05:33:56.925Z,94668.76
2018-04-06T05:36:24.694Z,94681.91
2018-04-06T05:38:52.469Z,94672.86
2018-04-06T05:41:20.099Z,94680.20
2018-04-06T05:43:47.697Z,94690.13
2018-04-06T05:46:15.862Z,94688.39
2018-04-06T05:48:43.486Z,94686.86
2018-04-06T05:51:11.998Z,94682.83
2018-04-06T05:53:39.947Z,94696.71
2018-04-06T05:56:07.584Z,94691.47
2018-04-06T05:58:35.273Z,94691.73
2018-04-06T06:01:02.935Z,94690.13
2018-04-06T06:03:30.584Z,94692.11
2018-04-06T06:05:58.236Z,94697.41
2018-04-06T06:08:25.879Z,94704.77
2018-04-06T06:10:53.471Z,94705.64
2018-04-06T06:13:21.168Z,94699.77
2018-04-06T06:15:48.823Z,94704.67
2018-04-06T06:18:16.574Z,94705.47
2018-04-06T06:20:44.422Z,94710.05
2018-04-06T06:23:12.033Z,94705.95
2018-04-06T06:25:39.691Z,94708.60
2018-04-06T06:28:07.302Z,94710.50
2018-04-06T06:30:34.946Z,94707.33
2018-04-06T06:33:02.609Z,94713.02
2018-04-06T06:35:30.226Z,94713.27
2018-04-06T06:37:58.833Z,94716.07
2018-04-06T06:40:26.437Z,94718.14
2018-04-06T06:42:54.057Z,94714.41
2018-04-06T06:45:21.724Z,94717.11
2018-04-06T06:47:49.340Z,94713.95
2018-04-06T06:50:17.093Z,94717.70
2018-04-06T06:52:44.746Z,94716.22
2018-04-06T06:55:13.079Z,94715.50
2018-04-06T06:57:40.712Z,94713.48
2018-04-06T07:00:08.465Z,94712.42
2018-04-06T07:02:36.122Z,94710.41
2018-04-06T07:05:03.849Z,94707.74
2018-04-06T07:07:31.543Z,94713.25
2018-04-06T07:09:59.294Z,94708.19
2018-04-06T07:12:26.979Z,94702.26
2018-04-06T07:14:54.657Z,94702.85
2018-04-06T07:17:22.350Z,94704.16
2018-04-06T07:19:50.080Z,94696.77
2018-04-06T07:22:17.746Z,94697.38
2018-04-06T07:24:45.415Z,94695.56
2018-04-06T07:27:13.078Z,94691.19
2018-04-06T07:29:40.749Z,94687.03
2018-04-06T07:32:08.386Z,94684.73
2018-04-06T07:34:36.016Z,94682.56
2018-04-06T07:37:03.673Z,94691.95
2018-04-06T07:39:31.319Z,94683.75
2018-04-06T07:41:58.989Z,94677.47
2018-04-06T07:44:26.704Z,94679.86
2018-04-06T07:46:54.360Z,94682.84
2018-04-06T07:49:21.938Z,94675.44
2018-04-06T07:51:49.529Z,94683.62
2018-04-06T07:54:17.202Z,94676.94
2018-04-06T07:56:44.824Z,94679.45
2018-04-06T07:59:12.442Z,94678.28
2018-04-06T08:01:40.141Z,94680.18
2018-04-06T08:04:07.800Z,94681.17
2018-04-06T08:06:35.420Z,94671.46
2018-04-06T08:09:03.162Z,94669.22
2018-04-06T08:11:30.752Z,94662.55
2018-04-06T08:13:58.434Z,94669.33
2018-04-06T08:16:26.079Z,94669.74
2018-04-06T08:18:53.736Z,94665.05
2018-04-06T08:21:21.326Z,94671.62
2018-04-06T08:23:48.983Z,94675.88
2018-04-06T08:26:16.646Z,94666.88
2018-04-06T08:28:44.311Z,94666.20
2018-04-06T08:31:11.925Z,94658.94
2018-04-06T08:33:39.584Z,94658.62
2018-04-06T08:36:07.248Z,94663.19
2018-04-06T08:38:34.876Z,94660.33
2018-04-06T08:41:02.519Z,94665.98
2018-04-06T08:43:30.143Z,94672.45
2018-04-06T08:45:57.812Z,94663.07
2018-04-06T08:48:25.462Z,94662.86
2018-04-06T08:50:53.171Z,94662.28
2018-04-06T08:53:20.776Z,94666.23
2018-04-06T08:55:48.431Z,94668.02
2018-04-06T08:58:16.092Z,94661.60
2018-04-06T09:00:43.797Z,94662.90
2018-04-06T09:03:11.580Z,94666.09
2018-04-06T09:05:39.243Z,94667.99
2018-04-06T09:08:07.486Z,94669.20
2018-04-06T09:10:35.097Z,94665.83
2018-04-06T09:13:02.948Z,94663.78
2018-04-06T09:15:30.605Z,94661.45
2018-04-06T09:17:58.343Z,94666.34
2018-04-06T09:20:26.002Z,94661.70
2018-04-06T09:22:53.653Z,94662.92
2018-04-06T09:25:21.318Z,94659.89
2018-04-06T09:27:48.936Z,94661.12
2018-04-06T09:30:16.639Z,94660.66
2018-04-06T09:32:44.270Z,94659.78
2018-04-06T09:35:11.953Z,94665.43
2018-04-06T09:37:40.211Z,94665.80
2018-04-06T09:40:07.900Z,94659.23
2018-04-06T09:42:35.572Z,94660.63
2018-04-06T09:45:03.231Z,94658.94
2018-04-06T09:47:30.931Z,94653.69
2018-04-06T09:49:58.527Z,94652.33
2018-04-06T09:52:26.102Z,94651.58
2018-04-06T09:54:53.736Z,94649.35
2018-04-06T09:57:21.409Z,94654.09
2018-04-06T09:59:49.045Z,94650.22
2018-04-06T10:02:16.705Z,94647.12
2018-04-06T10:04:44.296Z,94647.56
2018-04-06T10:07:12.009Z,94644.02
2018-04-06T10:09:39.593Z,94648.06
2018-04-06T10:12:07.290Z,94644.73
2018-04-06T10:14:34.894Z,94640.64
2018-04-06T10:17:02.575Z,94640.90
2018-04-06T10:19:30.185Z,94644.82
2018-04-06T10:21:57.936Z,94635.05
2018-04-06T10:24:25.599Z,94636.75
2018-04-06T10:26:53.262Z,94630.66
2018-04-06T10:29:20.926Z,94627.41
2018-04-06T10:31:48.565Z,94627.66
2018-04-06T10:34:16.227Z,94617.98
2018-04-06T10:36:43.852Z,94607.91
2018-04-06T10:39:11.565Z,94602.86
2018-04-06T10:41:39.208Z,94604.99
2018-04-06T10:44:06.981Z,94613.22
2018-04-06T10:46:34.576Z,94601.84
2018-04-06T10:49:02.195Z,94596.50
2018-04-06T10:51:29.850Z,94597.20
2018-04-06T10:53:57.466Z,94600.19
2018-04-06T10:56:25.132Z,94589.92
2018-04-06T10:58:52.745Z,94589.95
2018-04-06T11:01:20.493Z,94591.63
2018-04-06T11:03:48.160Z,94581.11
2018-04-06T11:06:15.828Z,94583.44
2018-04-06T11:08:43.436Z,94572.71
2018-04-06T11:11:11.112Z,94562.72
2018-04-06T11:13:38.848Z,94558.03
2018-04-06T11:16:06.473Z,94549.83
2018-04-06T11:18:34.133Z,94545.13
2018-04-06T11:21:01.947Z,94542.01
2018-04-06T11:23:29.599Z,94534.31
2018-04-06T11:25:57.259Z,94528.22
2018-04-06T11:28:24.924Z,94520.78
2018-04-06T11:30:52.747Z,94514.15
2018-04-06T11:33:20.332Z,94511.66
2018-04-06T11:35:48.005Z,94513.86
2018-04-06T11:38:15.710Z,94505.22
2018-04-06T11:40:43.334Z,94504.38
2018-04-06T11:43:10.999Z,94495.22
2018-04-06T11:45:38.749Z,94489.39
2018-04-06T11:48:06.449Z,94482.58
2018-04-06T11:50:34.159Z,94488.30
2018-04-06T11:53:01.866Z,94492.34
2018-04-06T11:55:29.501Z,94481.63
2018-04-06T11:57:57.145Z,94473.59
2018-04-06T12:00:24.743Z,94470.02
2018-04-06T12:02:53.306Z,94471.72
2018-04-06T12:05:20.917Z,94468.86
2018-04-06T12:07:48.587Z,94459.34
2018-04-06T12:10:17.338Z,94454.19
2018-04-06T12:12:45.028Z,94454.11
2018-04-06T12:15:12.721Z,94448.08
2018-04-06T12:17:40.347Z,94442.23
2018-04-06T12:20:08.053Z,94436.89
2018-04-06T12:22:35.661Z,94439.69
2018-04-06T12:25:04.236Z,94438.34
2018-04-06T12:27:31.955Z,94435.50
2018-04-06T12:29:59.578Z,94436.27
2018-04-06T12:32:27.277Z,94433.16
2018-04-06T12:34:55.632Z,94437.63
2018-04-06T12:37:24.124Z,94431.94
2018-04-06T12:39:51.802Z,94439.41
2018-04-06T12:42:19.421Z,94436.18
2018-04-06T12:44:47.116Z,94434.92
2018-04-06T12:47:14.915Z,94435.32
2018-04-06T12:49:42.550Z,94432.86
2018-04-06T12:52:10.184Z,94428.49
2018-04-06T12:54:37.851Z,94432.16
2018-04-06T12:57:05.495Z,94426.95
2018-04-06T12:59:33.112Z,94428.64
2018-04-06T13:02:00.750Z,94421.63
2018-04-06T13:04:28.415Z,94415.84
2018-04-06T13:06:56.032Z,94414.84
2018-04-06T13:09:23.696Z,94406.66
2018-04-06T13:11:51.292Z,94408.31
2018-04-06T13:14:18.993Z,94409.67
2018-04-06T13:16:46.631Z,94407.00
2018-04-06T13:19:14.302Z,94410.45
2018-04-06T13:21:41.969Z,94402.65
2018-04-06T13:24:09.632Z,94398.13
2018-04-06T13:26:37.257Z,94399.63
2018-04-06T13:29:04.959Z,94392.64
2018-04-06T13:31:32.592Z,94392.77
2018-04-06T13:34:00.781Z,94381.58
2018-04-06T13:36:28.466Z,94386.96
2018-04-06T13:38:56.123Z,94385.75
2018-04-06T13:41:23.783Z,94384.31
2018-04-06T13:43:52.206Z,94379.05
2018-04-06T13:46:19.888Z,94372.53
2018-04-06T13:48:47.593Z,94377.97
2018-04-06T13:51:15.252Z,94371.14
2018-04-06T13:53:42.886Z,94367.63
2018-04-06T13:56:10.570Z,94367.86
2018-04-06T13:58:38.295Z,94356.83
2018-04-06T14:01:05.971Z,94362.97
2018-04-06T14:03:33.614Z,94356.89
2018-04-06T14:06:02.447Z,94348.03
2018-04-06T14:08:30.043Z,94341.94
2018-04-06T14:10:57.734Z,94348.63
2018-04-06T14:13:25.398Z,94344.87
2018-04-06T14:15:53.076Z,94347.06
2018-04-06T14:18:20.758Z,94331.98
2018-04-06T14:20:48.376Z,94332.29
2018-04-06T14:23:16.039Z,94339.83
2018-04-06T14:25:43.710Z,94335.77
2018-04-06T14:28:11.352Z,94335.92
2018-04-06T14:30:39.048Z,94333.53
2018-04-06T14:33:07.630Z,94327.64
2018-04-06T14:35:35.285Z,94323.58
2018-04-06T14:38:02.892Z,94326.33
2018-04-06T14:40:31.693Z,94326.70
2018-04-06T14:42:59.402Z,94323.56
2018-04-06T14:45:27.071Z,94318.17
2018-04-06T14:47:54.740Z,94311.84
2018-04-06T14:50:22.404Z,94324.19
2018-04-06T14:52:50.018Z,94317.48
2018-04-06T14:55:17.681Z,94314.53
2018-04-06T14:57:45.303Z,94311.12
2018-04-06T15:00:12.946Z,94316.00
2018-04-06T15:02:41.506Z,94316.81
2018-04-06T15:05:09.208Z,94315.23
2018-04-06T15:07:36.846Z,94312.15
2018-04-06T15:10:04.517Z,94318.21
2018-04-06T15:12:32.182Z,94318.97
2018-04-06T15:14:59.771Z,94317.98
2018-04-06T15:17:27.424Z,94322.18
2018-04-06T15:19:55.089Z,94319.68
2018-04-06T15:22:22.675Z,94309.53
2018-04-06T15:24:51.246Z,94308.05
2018-04-06T15:27:18.916Z,94312.63
2018-04-06T15:29:46.577Z,94309.16
2018-04-06T15:32:14.294Z,94304.66
2018-04-06T15:34:41.919Z,94309.36
2018-04-06T15:37:09.541Z,94307.68
2018-04-06T15:39:37.199Z,94308.77
2018-04-06T15:42:04.901Z,94309.94
2018-04-06T15:44:32.611Z,94312.83
2018-04-06T15:47:00.269Z,94306.38
2018-04-06T15:49:27.923Z,94311.58
2018-04-06T15:51:55.593Z,94304.73
2018-04-06T15:54:23.253Z,94306.23
2018-04-06T15:56:50.953Z,94307.78
2018-04-06T15:59:18.607Z,94305.41
2018-04-06T16:01:46.253Z,94306.58
2018-04-06T16:04:13.932Z,94310.21
2018-04-06T16:06:41.595Z,94309.65
2018-04-06T16:09:09.278Z,94307.92
2018-04-06T16:11:36.973Z,94314.80
2018-04-06T16:14:04.716Z,94309.13
2018-04-06T16:16:32.457Z,94310.06
2018-04-06T16:19:00.179Z,94304.56
2018-04-06T16:21:27.901Z,94302.89
2018-04-06T16:23:55.625Z,94307.94
2018-04-06T16:26:23.291Z,94312.41
2018-04-06T16:28:50.989Z,94310.54
2018-04-06T16:31:18.642Z,94311.91
2018-04-06T16:33:47.130Z,94312.80
2018-04-06T16:36:14.759Z,94317.21
2018-04-06T16:38:42.522Z,94313.27
2018-04-06T16:41:10.180Z,94312.11
2018-04-06T16:43:37.853Z,94316.36
2018-04-06T16:46:05.532Z,94321.03
2018-04-06T16:48:33.179Z,94319.81
2018-04-06T16:51:00.860Z,94317.81
2018-04-06T16:53:28.548Z,94312.38
2018-04-06T16:55:56.227Z,94319.86
2018-04-06T16:58:23.926Z,94319.80
2018-04-06T17:00:51.599Z,94323.27
2018-04-06T17:03:19.287Z,94327.33
2018-04-06T17:05:46.932Z,94329.42
2018-04-06T17:08:14.565Z,94332.35
2018-04-06T17:10:42.189Z,94328.28
2018-04-06T17:13:09.924Z,94329.44
2018-04-06T17:15:37.560Z,94330.99
2018-04-06T17:18:05.270Z,94329.81
2018-04-06T17:20:33.881Z,94328.32
2018-04-06T17:23:01.509Z,94336.27
2018-04-06T17:25:29.212Z,94342.55
2018-04-06T17:27:56.901Z,94346.98
2018-04-06T17:30:24.603Z,94343.80
2018-04-06T17:32:52.281Z,94345.67
2018-04-06T17:35:19.883Z,94348.61
2018-04-06T17:37:47.552Z,94354.27
2018-04-06T17:40:15.202Z,94353.56
2018-04-06T17:42:42.877Z,94348.84
2018-04-06T17:45:10.617Z,94351.84
2018-04-06T17:47:38.251Z,94351.92
2018-04-06T17:50:07.124Z,94353.75
2018-04-06T17:52:34.743Z,94357.20
2018-04-06T17:55:02.481Z,94360.03
2018-04-06T17:57:30.485Z,94366.03
2018-04-06T17:59:59.357Z,94367.93
2018-04-06T18:02:27.113Z,94366.73
2018-04-06T18:04:55.601Z,94368.14
2018-04-06T18:07:23.285Z,94376.06
2018-04-06T18:09:50.957Z,94372.44
2018-04-06T18:12:18.630Z,94376.52
2018-04-06T18:14:46.306Z,94385.96
2018-04-06T18:17:13.999Z,94394.10
2018-04-06T18:19:41.779Z,94404.33
2018-04-06T18:22:10.723Z,94409.52
2018-04-06T18:24:38.539Z,94408.58
2018-04-06T18:27:06.375Z,94412.16
2018-04-06T18:29:34.086Z,94412.21
2018-04-06T18:32:01.759Z,94417.20
2018-04-06T18:34:29.414Z,94424.77
2018-04-06T18:36:57.928Z,94422.92
2018-04-06T18:39:25.644Z,94429.70
2018-04-06T18:41:53.473Z,94433.59
2018-04-06T18:44:21.199Z,94429.70
2018-04-06T18:46:48.909Z,94435.92
2018-04-06T18:49:16.724Z,94439.53
2018-04-06T18:51:44.604Z,94442.61
2018-04-06T18:54:12.328Z,94441.41
2018-04-06T18:56:40.063Z,94447.38
2018-04-06T18:59:09.524Z,94453.67
2018-04-06T19:01:37.798Z,94448.09
2018-04-06T19:04:05.866Z,94448.89
2018-04-06T19:06:33.738Z,94451.65
2018-04-06T19:09:01.782Z,94455.05
2018-04-06T19:11:29.527Z,94452.30
2018-04-06T19:13:59.210Z,94460.90
2018-04-06T19:16:27.145Z,94459.05
2018-04-06T19:18:55.205Z,94461.84
2018-04-06T19:21:22.987Z,94460.81
2018-04-06T19:23:51.038Z,94464.69
2018-04-06T19:26:19.478Z,94460.18
2018-04-06T19:28:47.181Z,94460.12
2018-04-06T19:31:14.866Z,94459.99
2018-04-06T19:33:43.280Z,94464.97
2018-04-06T19:36:11.043Z,94462.31
2018-04-06T19:38:38.990Z,94470.31
2018-04-06T19:41:07.356Z,94469.45
2018-04-06T19:43:35.432Z,94468.13
2018-04-06T19:46:03.522Z,94473.00
2018-04-06T19:48:31.557Z,94479.59
2018-04-06T19:50:59.386Z,94483.42
2018-04-06T19:53:29.161Z,94483.09
2018-04-06T19:55:57.131Z,94484.33
2018-04-06T19:58:27.441Z,94483.43
2018-04-06T20:00:56.465Z,94480.97
2018-04-06T20:03:25.032Z,94483.16
2018-04-06T20:05:52.766Z,94480.20
2018-04-06T20:08:21.638Z,94482.14
2018-04-06T20:10:49.352Z,94474.65
2018-04-06T20:13:17.067Z,94473.03
2018-04-06T20:15:44.727Z,94471.78
2018-04-06T20:18:12.447Z,94472.33
2018-04-06T20:20:40.160Z,94474.24
2018-04-06T20:23:07.982Z,94474.42
2018-04-06T20:25:37.471Z,94477.61
2018-04-06T20:28:06.122Z,94480.42
2018-04-06T20:30:34.942Z,94483.34
2018-04-06T20:33:02.602Z,94478.98
2018-04-06T20:35:30.266Z,94478.70
2018-04-06T20:37:57.991Z,94483.37
2018-04-06T20:40:25.671Z,94479.44
2018-04-06T20:42:53.380Z,94479.13
2018-04-06T20:45:22.115Z,94483.87
2018-04-06T20:47:49.842Z,94477.69
2018-04-06T20:50:17.603Z,94477.05
2018-04-06T20:52:45.368Z,94466.66
2018-04-06T20:55:13.026Z,94472.03
2018-04-06T20:57:41.017Z,94474.75
2018-04-06T21:00:08.774Z,94473.17
2018-04-06T21:02:36.567Z,94475.23
2018-04-06T21:05:05.004Z,94476.95
2018-04-06T21:07:32.717Z,94475.66
2018-04-06T21:10:00.380Z,94482.42
2018-04-06T21:12:28.168Z,94482.23
2018-04-06T21:14:55.813Z,94480.05
2018-04-06T21:17:23.872Z,94480.59
2018-04-06T21:19:51.756Z,94475.46
2018-04-06T21:22:19.495Z,94479.84
2018-04-06T21:24:47.174Z,94476.24
2018-04-06T21:27:14.877Z,94470.19
2018-04-06T21:29:42.572Z,94470.53
2018-04-06T21:32:10.355Z,94472.80
2018-04-06T21:34:38.034Z,94467.23
2018-04-06T21:37:05.735Z,94470.50
2018-04-06T21:39:33.628Z,94470.30
2018-04-06T21:42:01.451Z,94471.29
2018-04-06T21:44:29.176Z,94474.19
2018-04-06T21:46:56.873Z,94476.23
2018-04-06T21:49:24.539Z,94478.57
2018-04-06T21:51:53.534Z,94474.94
2018-04-06T21:54:21.603Z,94477.95
2018-04-06T21:56:49.364Z,94475.10
2018-04-06T21:59:17.068Z,94468.45
2018-04-06T22:01:44.723Z,94478.41
2018-04-06T22:04:12.549Z,94483.28
2018-04-06T22:06:40.182Z,94479.75
2018-04-06T22:09:07.898Z,94483.88
2018-04-06T22:11:36.375Z,94480.03
2018-04-06T22:14:04.058Z,94481.71
2018-04-06T22:16:31.690Z,94480.86
2018-04-06T22:18:59.378Z,94476.86
2018-04-06T22:21:27.000Z,94474.55
2018-04-06T22:23:54.707Z,94479.81
2018-04-06T22:26:22.368Z,94478.34
2018-04-06T22:28:49.975Z,94475.37
2018-04-06T22:31:17.643Z,94480.03
2018-04-06T22:33:45.317Z,94481.65
2018-04-06T22:36:12.956Z,94481.92
2018-04-06T22:38:40.657Z,94477.92
2018-04-06T22:41:08.270Z,94484.42
2018-04-06T22:43:36.205Z,94482.63
2018-04-06T22:46:03.907Z,94486.03
2018-04-06T22:48:31.728Z,94486.81
2018-04-06T22:50:59.368Z,94488.36
2018-04-06T22:53:26.991Z,94483.95
2018-04-06T22:55:54.670Z,94484.34
2018-04-06T22:58:22.365Z,94485.28
2018-04-06T23:00:49.985Z,94481.66
2018-04-06T23:03:18.649Z,94480.67
2018-04-06T23:05:46.300Z,94481.71
2018-04-06T23:08:13.988Z,94477.88
2018-04-06T23:10:41.649Z,94485.74
2018-04-06T23:13:09.368Z,94478.93
2018-04-06T23:15:37.019Z,94478.02
2018-04-06T23:18:04.744Z,94477.08
2018-04-06T23:20:32.394Z,94477.45
2018-04-06T23:23:00.112Z,94473.38
2018-04-06T23:25:27.792Z,94478.64
2018-04-06T23:27:55.541Z,94481.43
2018-04-06T23:30:23.279Z,94476.11
2018-04-06T23:32:51.073Z,94471.41
2018-04-06T23:35:18.734Z,94471.39
2018-04-06T23:37:46.463Z,94477.23
2018-04-06T23:40:14.143Z,94475.02
2018-04-06T23:42:41.857Z,94464.72
2018-04-06T23:45:09.617Z,94466.95
2018-04-06T23:47:37.270Z,94463.44
2018-04-06T23:50:04.942Z,94458.52
2018-04-06T23:52:32.634Z,94453.66
2018-04-06T23:55:00.322Z,94453.28
2018-04-06T23:57:28.007Z,94445.52
2018-04-06T23:59:55.680Z,94449.96
